Versailles, IN

1:02 PM EDT on April 27, 2017 (GMT -0400)
RCEMA - Versailles | | Change Station

Elev 955 ft 39.07 °N, 85.25 °W | Updated 2 minutes ago

Overcast
Overcast
58.9 °F
Feels Like 58.9 °F
N
11.0
Wind Variable Wind from SW
Gusts 11.0 mph

Today
High -- | Low -- °F
--% Chance of Precip.
Yesterday
High -- | Low -- °F
Precip. -- in
Pressure 29.63 in
Visibility 7.0 miles
Clouds Few 1900 ft
Scattered Clouds 3000 ft
Mostly Cloudy 3900 ft
Dew Point 51 °F
Humidity 76%
Rainfall 0.33 in
Snow Depth Not available.
6:47 AM 8:30 PM
New Moon, 2% visible
METAR KCVG 271652Z 24008G27KT 7SM -RA FEW019 SCT030 BKN039CB 17/15 A2965 RMK AO2 PK WND 24027/1643 RAB43 PRESRR SLP032 CB NE MOV NE P0011 T01670150 $
Pressure 29.63 in
Visibility 7.0 miles
Clouds Few 1900 ft
Scattered Clouds 3000 ft
Mostly Cloudy 3900 ft
Dew Point 51 °F
Humidity 76%
Rainfall 0.33 in
Snow Depth Not available.
6:47 AM 8:30 PM
New Moon, 2% visible
METAR KCVG 271652Z 24008G27KT 7SM -RA FEW019 SCT030 BKN039CB 17/15 A2965 RMK AO2 PK WND 24027/1643 RAB43 PRESRR SLP032 CB NE MOV NE P0011 T01670150 $

Get Severe Weather Alerts

Thanks for signing up!

Be on the lookout for a verification email in your inbox.

You'll start receiving the daily forecast at 8 AM.

×

10-Day Weather Forecast

Almanac

Astronomy

Apr. 27, 2017 Rise Set
Actual Time
Civil Twilight
Nautical Twilight
Astronomical Twilight
Moon
Length of Visible Light
Length of Day
Tomorrow will be .
, % of the Moon is Illuminated

Today's Extremes

State Highs State Lows

Community

WunderPhotos

WunderBlog® & News

Nearby

Air Quality

  Air Quality AQ Index Pollutant
Not available.

Snow Depth

Station Depth Elevation

Earthquake Activity

City Distance Mag. Time & Date
Minimum magnitude displayed is 2.5.

Coastal Water Temperatures

Place Temperature

Stations

Nearby Weather Stations

Station Location Temp. Windchill Dew Point Humidity Wind Precip. Elev Updated Type
                   

Watches & Warnings

There are currently no watches in effect.